Mekhanik Banatov — UABI — position and weather

sailwx.info

Track history (hours):
 
Tides and Currents Weather Stations Pressure Air Temp Water Temp Dewpoint Dewpoint Depression Visibility Wind Speed Wind Dir Waves Ship Positions

Mekhanik Banatov

Last reported at 2017-Jul-11 04:43 UTC. Time now 2017-Jul-20 18:24 UTC.
Position N 45°28' E 036°43'.
Warning: this ship's position is 9 days out of date.

Length 132 m; draft 2.8 m.

Type: Tanker. MMSI: 273272100.

Date/timePositionNaut miles runAvg speedWind from/ knotsBaromVisibWave heightAir tempDewpointWater temp
2017-Jul-11 04:43N 45°28' E 036°43'2 8.5
2017-Jul-11 04:31N 45°27' E 036°42'4 8.5
2017-Jul-11 04:01N 45°23' E 036°41'4 7.1
2017-Jul-11 03:30N 45°20' E 036°37'4 8.1
2017-Jul-11 03:00N 45°19' E 036°32'4 7.2
2017-Jul-11 02:30N 45°16' E 036°29'4 2.1
2017-Jul-11 00:48N 45°13' E 036°32'0 0.0
2017-Jul-11 00:24N 45°13' E 036°32'0 0.0
2017-Jul-10 23:44N 45°13' E 036°32'0 0.1
2017-Jul-10 22:13N 45°13' E 036°31'4 0.3
2017-Jul-10 08:45N 45°15' E 036°28'3 7.3
2017-Jul-10 08:22N 45°18' E 036°29'3 8.2
2017-Jul-10 08:00N 45°19' E 036°33'4 7.1
2017-Jul-10 07:30N 45°20' E 036°38'2 4.6
2017-Jul-10 07:00N 45°22' E 036°40'1 2.7
2017-Jul-10 06:30N 45°23' E 036°41'2 4.8
2017-Jul-10 06:00N 45°26' E 036°41'4 0.1
2017-Jul-08 15:57N 45°29' E 036°45'  
Track history (hours):
 
Tides and Currents Weather Stations Pressure Air Temp Water Temp Dewpoint Dewpoint Depression Visibility Wind Speed Wind Dir Waves Ship Positions

Mekhanik Banatov

Last reported at 2017-Jul-11 04:43 UTC. Time now 2017-Jul-20 18:24 UTC.
Position N 45°28' E 036°43'.
Warning: this ship's position is 9 days out of date.

Length 132 m; draft 2.8 m.

Type: Tanker. MMSI: 273272100.

Date/timePositionNaut miles runAvg speedWind from/ knotsBaromVisibWave heightAir tempDewpointWater temp
2017-Jul-11 04:43N 45°28' E 036°43'2 8.5
2017-Jul-11 04:31N 45°27' E 036°42'4 8.5
2017-Jul-11 04:01N 45°23' E 036°41'4 7.1
2017-Jul-11 03:30N 45°20' E 036°37'4 8.1
2017-Jul-11 03:00N 45°19' E 036°32'4 7.2
2017-Jul-11 02:30N 45°16' E 036°29'4 2.1
2017-Jul-11 00:48N 45°13' E 036°32'0 0.0
2017-Jul-11 00:24N 45°13' E 036°32'0 0.0
2017-Jul-10 23:44N 45°13' E 036°32'0 0.1
2017-Jul-10 22:13N 45°13' E 036°31'4 0.3
2017-Jul-10 08:45N 45°15' E 036°28'3 7.3
2017-Jul-10 08:22N 45°18' E 036°29'3 8.2
2017-Jul-10 08:00N 45°19' E 036°33'4 7.1
2017-Jul-10 07:30N 45°20' E 036°38'2 4.6
2017-Jul-10 07:00N 45°22' E 036°40'1 2.7
2017-Jul-10 06:30N 45°23' E 036°41'2 4.8
2017-Jul-10 06:00N 45°26' E 036°41'4 0.1
2017-Jul-08 15:57N 45°29' E 036°45'  

Dump ship's entire track history